CFG9AT EDDF-LGIR
Flight info
| Callsign | CFG9AT |
|---|---|
| Flight time | 2h 45m |
| Altitude | 37000 |
| Route | CINDY8S/18 CINDY Z74 LAMPU DCT NOMBO Y161 MAH DCT VAVOR DCT RADIZ DCT PINDO DCT KEA UL607 GIVIS/N0388F230 T514 XAVIS |
| Aircraft | A321/M-SDE3FGHIRWY/LB1 |
Departure
| Time | 2026-05-06 14:14 |
|---|---|
| Airport | Frankfurt Main Airport (EDDF) |
Arrival
| Time | 2026-05-06 16:59 |
|---|---|
| Airport | Heraklion International Nikos Kazantzakis Airport (LGIR) |
| Time | Latitude | Longitude | Altitude | Speed | Heading |
|---|---|---|---|---|---|
| 2026-05-06 13:42 | 50.03955 | 8.55111 | 346 ft | 0 kts | 160° |
| 2026-05-06 14:08 | 50.03946 | 8.55117 | 351 ft | 5 kts | 160° |
| 2026-05-06 14:09 | 50.03917 | 8.55133 | 351 ft | 3 kts | 159° |
| 2026-05-06 14:09 | 50.03886 | 8.55145 | 350 ft | 8 kts | 180° |
| 2026-05-06 14:09 | 50.03840 | 8.55071 | 348 ft | 10 kts | 248° |
| 2026-05-06 14:09 | 50.03814 | 8.54967 | 348 ft | 13 kts | 249° |
| 2026-05-06 14:10 | 50.03770 | 8.54783 | 352 ft | 21 kts | 249° |
| 2026-05-06 14:10 | 50.03721 | 8.54578 | 353 ft | 20 kts | 250° |
| 2026-05-06 14:10 | 50.03674 | 8.54380 | 352 ft | 19 kts | 249° |
| 2026-05-06 14:10 | 50.03627 | 8.54184 | 353 ft | 21 kts | 250° |
| 2026-05-06 14:11 | 50.03571 | 8.53947 | 349 ft | 24 kts | 249° |
| 2026-05-06 14:11 | 50.03512 | 8.53705 | 351 ft | 24 kts | 249° |
| 2026-05-06 14:11 | 50.03456 | 8.53470 | 352 ft | 23 kts | 250° |
| 2026-05-06 14:11 | 50.03402 | 8.53243 | 353 ft | 22 kts | 249° |
| 2026-05-06 14:12 | 50.03350 | 8.53023 | 349 ft | 21 kts | 250° |
| 2026-05-06 14:12 | 50.03299 | 8.52812 | 351 ft | 21 kts | 249° |
| 2026-05-06 14:12 | 50.03268 | 8.52651 | 346 ft | 7 kts | 263° |
| 2026-05-06 14:12 | 50.03243 | 8.52599 | 349 ft | 6 kts | 205° |
| 2026-05-06 14:13 | 50.03197 | 8.52597 | 348 ft | 13 kts | 179° |
| 2026-05-06 14:13 | 50.02865 | 8.52596 | 352 ft | 82 kts | 180° |
| 2026-05-06 14:13 | 50.02103 | 8.52604 | 349 ft | 135 kts | 180° |
| 2026-05-06 14:13 | 50.01025 | 8.52613 | 372 ft | 171 kts | 181° |
| 2026-05-06 14:14 | 49.99829 | 8.52603 | 942 ft | 170 kts | 182° |
| 2026-05-06 14:14 | 49.98644 | 8.52598 | 1577 ft | 173 kts | 184° |
| 2026-05-06 14:14 | 49.97388 | 8.52882 | 1795 ft | 196 kts | 163° |
| 2026-05-06 14:14 | 49.96193 | 8.54138 | 1923 ft | 223 kts | 135° |
| 2026-05-06 14:15 | 49.95329 | 8.56275 | 2313 ft | 242 kts | 121° |
| 2026-05-06 14:15 | 49.94543 | 8.58559 | 3221 ft | 241 kts | 117° |
| 2026-05-06 14:15 | 49.94045 | 8.61094 | 3807 ft | 256 kts | 98° |
| 2026-05-06 14:15 | 49.93911 | 8.63973 | 4272 ft | 274 kts | 95° |
| 2026-05-06 14:16 | 49.93705 | 8.66891 | 5047 ft | 277 kts | 106° |
| 2026-05-06 14:16 | 49.92949 | 8.69666 | 5888 ft | 276 kts | 126° |
| 2026-05-06 14:16 | 49.91684 | 8.71836 | 6666 ft | 275 kts | 145° |
| 2026-05-06 14:16 | 49.90129 | 8.73560 | 7456 ft | 276 kts | 148° |
| 2026-05-06 14:17 | 49.88645 | 8.75494 | 8231 ft | 283 kts | 135° |
| 2026-05-06 14:17 | 49.87497 | 8.78005 | 8995 ft | 289 kts | 122° |
| 2026-05-06 14:17 | 49.86516 | 8.80748 | 9759 ft | 292 kts | 121° |
| 2026-05-06 14:17 | 49.85505 | 8.83567 | 10159 ft | 310 kts | 121° |
| 2026-05-06 14:18 | 49.84415 | 8.86587 | 10327 ft | 333 kts | 121° |
| 2026-05-06 14:18 | 49.83248 | 8.89812 | 10587 ft | 350 kts | 121° |
| 2026-05-06 14:18 | 49.82045 | 8.93130 | 11180 ft | 356 kts | 121° |
| 2026-05-06 14:18 | 49.80820 | 8.96497 | 11844 ft | 360 kts | 121° |
| 2026-05-06 14:19 | 49.79585 | 8.99891 | 12544 ft | 363 kts | 121° |
| 2026-05-06 14:19 | 49.78337 | 9.03313 | 13235 ft | 367 kts | 121° |
| 2026-05-06 14:19 | 49.77074 | 9.06774 | 13876 ft | 371 kts | 121° |
| 2026-05-06 14:19 | 49.76044 | 9.10394 | 14534 ft | 375 kts | 110° |
| 2026-05-06 14:20 | 49.75365 | 9.14320 | 15161 ft | 378 kts | 108° |
| 2026-05-06 14:20 | 49.74435 | 9.18113 | 15762 ft | 378 kts | 118° |
| 2026-05-06 14:20 | 49.73060 | 9.21571 | 16360 ft | 378 kts | 129° |
| 2026-05-06 14:20 | 49.71347 | 9.24676 | 16970 ft | 380 kts | 134° |
| 2026-05-06 14:21 | 49.69593 | 9.27756 | 17561 ft | 383 kts | 133° |
| 2026-05-06 14:21 | 49.67830 | 9.30858 | 18130 ft | 386 kts | 134° |
| 2026-05-06 14:21 | 49.66050 | 9.33994 | 18622 ft | 389 kts | 133° |
| 2026-05-06 14:21 | 49.64261 | 9.37148 | 19121 ft | 391 kts | 133° |
| 2026-05-06 14:22 | 49.62415 | 9.40239 | 19613 ft | 392 kts | 139° |
| 2026-05-06 14:22 | 49.60279 | 9.42851 | 20093 ft | 392 kts | 149° |
| 2026-05-06 14:22 | 49.57933 | 9.45020 | 20574 ft | 394 kts | 151° |
| 2026-05-06 14:22 | 49.55566 | 9.47178 | 21089 ft | 396 kts | 152° |
| 2026-05-06 14:23 | 49.53194 | 9.49348 | 21618 ft | 398 kts | 152° |
| 2026-05-06 14:23 | 49.50843 | 9.51503 | 22093 ft | 400 kts | 152° |
| 2026-05-06 14:23 | 49.48442 | 9.53701 | 22571 ft | 403 kts | 152° |
| 2026-05-06 14:23 | 49.46025 | 9.55908 | 23045 ft | 405 kts | 152° |
| 2026-05-06 14:24 | 49.43591 | 9.58121 | 23495 ft | 408 kts | 152° |
| 2026-05-06 14:24 | 49.41140 | 9.60347 | 23889 ft | 410 kts | 152° |
| 2026-05-06 14:24 | 49.38676 | 9.62578 | 24272 ft | 412 kts | 152° |
| 2026-05-06 14:24 | 49.36196 | 9.64821 | 24669 ft | 414 kts | 152° |
| 2026-05-06 14:25 | 49.33807 | 9.67312 | 25035 ft | 419 kts | 143° |
| 2026-05-06 14:25 | 49.31659 | 9.70374 | 25406 ft | 424 kts | 138° |
| 2026-05-06 14:25 | 49.29570 | 9.73572 | 25791 ft | 426 kts | 138° |
| 2026-05-06 14:25 | 49.27467 | 9.76790 | 26182 ft | 428 kts | 139° |
| 2026-05-06 14:26 | 49.25356 | 9.80017 | 26627 ft | 430 kts | 138° |
| 2026-05-06 14:26 | 49.23231 | 9.83258 | 27048 ft | 433 kts | 139° |
| 2026-05-06 14:26 | 49.21086 | 9.86518 | 27460 ft | 435 kts | 139° |
| 2026-05-06 14:26 | 49.18959 | 9.89742 | 27828 ft | 437 kts | 140° |
| 2026-05-06 14:27 | 49.16798 | 9.93010 | 28169 ft | 438 kts | 140° |
| 2026-05-06 14:27 | 49.14625 | 9.96299 | 28507 ft | 440 kts | 140° |
| 2026-05-06 14:27 | 49.12450 | 9.99593 | 28837 ft | 442 kts | 140° |
| 2026-05-06 14:27 | 49.10263 | 10.02904 | 29181 ft | 444 kts | 140° |
| 2026-05-06 14:28 | 49.08064 | 10.06228 | 29522 ft | 445 kts | 140° |
| 2026-05-06 14:28 | 49.05867 | 10.09542 | 29981 ft | 443 kts | 140° |
| 2026-05-06 14:28 | 49.03649 | 10.12795 | 30391 ft | 441 kts | 142° |
| 2026-05-06 14:28 | 49.01412 | 10.15974 | 30747 ft | 440 kts | 142° |
| 2026-05-06 14:29 | 48.99150 | 10.19124 | 31029 ft | 442 kts | 144° |
| 2026-05-06 14:29 | 48.96867 | 10.22277 | 31388 ft | 444 kts | 144° |
| 2026-05-06 14:29 | 48.94579 | 10.25450 | 31770 ft | 444 kts | 144° |
| 2026-05-06 14:29 | 48.92309 | 10.28629 | 32138 ft | 444 kts | 144° |
| 2026-05-06 14:30 | 48.90070 | 10.31786 | 32486 ft | 443 kts | 144° |
| 2026-05-06 14:30 | 48.87815 | 10.34973 | 32852 ft | 443 kts | 144° |
| 2026-05-06 14:30 | 48.85563 | 10.38158 | 33212 ft | 442 kts | 144° |
| 2026-05-06 14:30 | 48.83312 | 10.41336 | 33560 ft | 442 kts | 144° |
| 2026-05-06 14:31 | 48.81099 | 10.44583 | 33898 ft | 442 kts | 142° |
| 2026-05-06 14:31 | 48.78955 | 10.47936 | 34179 ft | 443 kts | 140° |
| 2026-05-06 14:31 | 48.76854 | 10.51357 | 34449 ft | 444 kts | 140° |
| 2026-05-06 14:31 | 48.74767 | 10.54808 | 34656 ft | 445 kts | 140° |
| 2026-05-06 14:32 | 48.72671 | 10.58264 | 34895 ft | 445 kts | 140° |
| 2026-05-06 14:32 | 48.70565 | 10.61692 | 35152 ft | 445 kts | 140° |
| 2026-05-06 14:32 | 48.68442 | 10.65095 | 35413 ft | 444 kts | 140° |
| 2026-05-06 14:32 | 48.66308 | 10.68483 | 35672 ft | 443 kts | 140° |
| 2026-05-06 14:33 | 48.64200 | 10.71810 | 35929 ft | 443 kts | 140° |
| 2026-05-06 14:33 | 48.62071 | 10.75170 | 36171 ft | 443 kts | 140° |
| 2026-05-06 14:33 | 48.59944 | 10.78530 | 36406 ft | 442 kts | 140° |
| 2026-05-06 14:33 | 48.57816 | 10.81898 | 36641 ft | 442 kts | 139° |
| 2026-05-06 14:34 | 48.55696 | 10.85274 | 36751 ft | 443 kts | 139° |
| 2026-05-06 14:34 | 48.53581 | 10.88660 | 36752 ft | 443 kts | 139° |
| 2026-05-06 14:34 | 48.49349 | 10.95435 | 36783 ft | 443 kts | 139° |
| 2026-05-06 14:35 | 48.45102 | 11.02149 | 36783 ft | 442 kts | 140° |
| 2026-05-06 14:35 | 48.40823 | 11.08796 | 36782 ft | 442 kts | 140° |
| 2026-05-06 14:36 | 48.36562 | 11.15375 | 36778 ft | 442 kts | 140° |
| 2026-05-06 14:36 | 48.32276 | 11.22011 | 36777 ft | 442 kts | 140° |
| 2026-05-06 14:37 | 48.27997 | 11.28634 | 36774 ft | 442 kts | 139° |
| 2026-05-06 14:37 | 48.24390 | 11.36234 | 36788 ft | 453 kts | 126° |
| 2026-05-06 14:38 | 48.21253 | 11.44431 | 36790 ft | 453 kts | 126° |
| 2026-05-06 14:38 | 48.18086 | 11.52606 | 36786 ft | 453 kts | 126° |
| 2026-05-06 14:39 | 48.14906 | 11.60765 | 36756 ft | 453 kts | 126° |
| 2026-05-06 14:39 | 48.11723 | 11.68932 | 36723 ft | 455 kts | 126° |
| 2026-05-06 14:40 | 48.08548 | 11.77059 | 36728 ft | 456 kts | 126° |
| 2026-05-06 14:40 | 48.05340 | 11.85242 | 36730 ft | 456 kts | 126° |
| 2026-05-06 14:41 | 48.02127 | 11.93424 | 36730 ft | 457 kts | 127° |
| 2026-05-06 14:41 | 47.98912 | 12.01599 | 36726 ft | 456 kts | 127° |
| 2026-05-06 14:42 | 47.95689 | 12.09748 | 36738 ft | 455 kts | 127° |
| 2026-05-06 14:42 | 47.91970 | 12.17181 | 36740 ft | 440 kts | 143° |
| 2026-05-06 14:43 | 47.87362 | 12.23047 | 36741 ft | 435 kts | 147° |
| 2026-05-06 14:43 | 47.82727 | 12.28838 | 36744 ft | 435 kts | 147° |
| 2026-05-06 14:44 | 47.78121 | 12.34603 | 36741 ft | 435 kts | 147° |
| 2026-05-06 14:45 | 47.71168 | 12.43263 | 36732 ft | 434 kts | 147° |
| 2026-05-06 14:45 | 47.66528 | 12.49023 | 36734 ft | 434 kts | 147° |
| 2026-05-06 14:46 | 47.61901 | 12.54778 | 36732 ft | 435 kts | 146° |
| 2026-05-06 14:46 | 47.57419 | 12.60863 | 36727 ft | 437 kts | 143° |
| 2026-05-06 14:47 | 47.53046 | 12.67127 | 36702 ft | 438 kts | 143° |
| 2026-05-06 14:47 | 47.48638 | 12.73347 | 36714 ft | 437 kts | 144° |
| 2026-05-06 14:48 | 47.44223 | 12.79448 | 36727 ft | 437 kts | 144° |
| 2026-05-06 14:48 | 47.39762 | 12.85574 | 36743 ft | 437 kts | 144° |
| 2026-05-06 14:49 | 47.35316 | 12.91697 | 36750 ft | 437 kts | 144° |
| 2026-05-06 14:49 | 47.30872 | 12.97813 | 36742 ft | 437 kts | 144° |
| 2026-05-06 14:50 | 47.27173 | 13.02888 | 36769 ft | 437 kts | 145° |
| 2026-05-06 14:50 | 47.22707 | 13.08989 | 36762 ft | 441 kts | 144° |
| 2026-05-06 14:51 | 47.18197 | 13.15136 | 36820 ft | 443 kts | 144° |
| 2026-05-06 14:51 | 47.13681 | 13.21281 | 36822 ft | 442 kts | 144° |
| 2026-05-06 14:52 | 47.09166 | 13.27405 | 36805 ft | 442 kts | 143° |
| 2026-05-06 14:52 | 47.04685 | 13.33482 | 36803 ft | 442 kts | 143° |
| 2026-05-06 14:53 | 47.00163 | 13.39601 | 36821 ft | 442 kts | 143° |
| 2026-05-06 14:53 | 46.95617 | 13.45727 | 36829 ft | 444 kts | 143° |
| 2026-05-06 14:54 | 46.91056 | 13.51853 | 36850 ft | 446 kts | 143° |
| 2026-05-06 14:54 | 46.86472 | 13.57999 | 36867 ft | 448 kts | 143° |
| 2026-05-06 14:55 | 46.81908 | 13.64108 | 36867 ft | 448 kts | 143° |
| 2026-05-06 14:55 | 46.77326 | 13.70248 | 36879 ft | 447 kts | 143° |
| 2026-05-06 14:56 | 46.72740 | 13.76357 | 36878 ft | 446 kts | 143° |
| 2026-05-06 14:56 | 46.68140 | 13.82449 | 36888 ft | 446 kts | 143° |
| 2026-05-06 14:57 | 46.63550 | 13.88528 | 36887 ft | 446 kts | 143° |
| 2026-05-06 14:57 | 46.58960 | 13.94594 | 36882 ft | 445 kts | 143° |
| 2026-05-06 14:58 | 46.54376 | 14.00642 | 36890 ft | 445 kts | 143° |
| 2026-05-06 14:58 | 46.49788 | 14.06680 | 36896 ft | 444 kts | 143° |
| 2026-05-06 14:59 | 46.45231 | 14.12659 | 36898 ft | 445 kts | 143° |
| 2026-05-06 14:59 | 46.40639 | 14.18691 | 36886 ft | 445 kts | 143° |
| 2026-05-06 15:00 | 46.36055 | 14.24690 | 36943 ft | 444 kts | 143° |
| 2026-05-06 15:00 | 46.31463 | 14.30658 | 36956 ft | 443 kts | 143° |
| 2026-05-06 15:01 | 46.26878 | 14.36599 | 36962 ft | 442 kts | 143° |
| 2026-05-06 15:01 | 46.22298 | 14.42552 | 36962 ft | 442 kts | 143° |
| 2026-05-06 15:02 | 46.17721 | 14.48487 | 36940 ft | 442 kts | 143° |
| 2026-05-06 15:02 | 46.13138 | 14.54409 | 36939 ft | 442 kts | 143° |
| 2026-05-06 15:03 | 46.08576 | 14.60280 | 36939 ft | 443 kts | 143° |
| 2026-05-06 15:03 | 46.03971 | 14.66177 | 36943 ft | 444 kts | 143° |
| 2026-05-06 15:04 | 45.99361 | 14.72096 | 36947 ft | 443 kts | 143° |
| 2026-05-06 15:04 | 45.94763 | 14.77995 | 36932 ft | 443 kts | 143° |
| 2026-05-06 15:05 | 45.90154 | 14.83886 | 36935 ft | 443 kts | 143° |
| 2026-05-06 15:05 | 45.85566 | 14.89724 | 36938 ft | 443 kts | 143° |
| 2026-05-06 15:06 | 45.80948 | 14.95579 | 36942 ft | 443 kts | 143° |
| 2026-05-06 15:06 | 45.76327 | 15.01434 | 36944 ft | 443 kts | 143° |
| 2026-05-06 15:07 | 45.71710 | 15.07285 | 36910 ft | 443 kts | 143° |
| 2026-05-06 15:07 | 45.67084 | 15.13119 | 36922 ft | 443 kts | 143° |
| 2026-05-06 15:08 | 45.62456 | 15.18938 | 36928 ft | 443 kts | 143° |
| 2026-05-06 15:08 | 45.57831 | 15.24754 | 36934 ft | 443 kts | 143° |
| 2026-05-06 15:09 | 45.53196 | 15.30572 | 36935 ft | 443 kts | 144° |
| 2026-05-06 15:09 | 45.48583 | 15.36335 | 36931 ft | 444 kts | 144° |
| 2026-05-06 15:10 | 45.43933 | 15.42126 | 36929 ft | 444 kts | 144° |
| 2026-05-06 15:10 | 45.39274 | 15.47923 | 36931 ft | 444 kts | 144° |
| 2026-05-06 15:11 | 45.34613 | 15.53711 | 36934 ft | 445 kts | 144° |
| 2026-05-06 15:11 | 45.29954 | 15.59497 | 36937 ft | 445 kts | 144° |
| 2026-05-06 15:12 | 45.25287 | 15.65267 | 36931 ft | 445 kts | 144° |
| 2026-05-06 15:12 | 45.20643 | 15.70982 | 36953 ft | 444 kts | 144° |
| 2026-05-06 15:13 | 45.15964 | 15.76720 | 36954 ft | 444 kts | 144° |
| 2026-05-06 15:13 | 45.11292 | 15.82450 | 36958 ft | 444 kts | 144° |
| 2026-05-06 15:14 | 45.06620 | 15.88188 | 36963 ft | 444 kts | 144° |
| 2026-05-06 15:14 | 45.01982 | 15.93873 | 36950 ft | 444 kts | 144° |
| 2026-05-06 15:15 | 44.97310 | 15.99570 | 36953 ft | 443 kts | 144° |
| 2026-05-06 15:15 | 44.92636 | 16.05251 | 36967 ft | 443 kts | 144° |
| 2026-05-06 15:16 | 44.87961 | 16.10929 | 36963 ft | 443 kts | 144° |
| 2026-05-06 15:16 | 44.83287 | 16.16594 | 36946 ft | 443 kts | 144° |
| 2026-05-06 15:17 | 44.78608 | 16.22241 | 36946 ft | 443 kts | 144° |
| 2026-05-06 15:17 | 44.73927 | 16.27895 | 36954 ft | 444 kts | 144° |
| 2026-05-06 15:18 | 44.69266 | 16.33509 | 36959 ft | 444 kts | 145° |
| 2026-05-06 15:18 | 44.64570 | 16.39152 | 36966 ft | 444 kts | 145° |
| 2026-05-06 15:19 | 44.59864 | 16.44781 | 36943 ft | 444 kts | 144° |
| 2026-05-06 15:19 | 44.55157 | 16.50396 | 36949 ft | 444 kts | 145° |
| 2026-05-06 15:20 | 44.50438 | 16.56021 | 36956 ft | 445 kts | 145° |
| 2026-05-06 15:20 | 44.45728 | 16.61649 | 36970 ft | 445 kts | 145° |
| 2026-05-06 15:21 | 44.41034 | 16.67238 | 36979 ft | 445 kts | 145° |
| 2026-05-06 15:21 | 44.36304 | 16.72840 | 36971 ft | 446 kts | 145° |
| 2026-05-06 15:22 | 44.31568 | 16.78436 | 36977 ft | 446 kts | 145° |
| 2026-05-06 15:22 | 44.26811 | 16.84047 | 36993 ft | 447 kts | 145° |
| 2026-05-06 15:23 | 44.22063 | 16.89630 | 36997 ft | 447 kts | 146° |
| 2026-05-06 15:23 | 44.17310 | 16.95217 | 36986 ft | 447 kts | 145° |
| 2026-05-06 15:24 | 44.12548 | 17.00795 | 36990 ft | 447 kts | 145° |
| 2026-05-06 15:24 | 44.07816 | 17.06325 | 37011 ft | 447 kts | 146° |
| 2026-05-06 15:25 | 44.03050 | 17.11884 | 37000 ft | 447 kts | 146° |
| 2026-05-06 15:25 | 43.98289 | 17.17428 | 37011 ft | 447 kts | 146° |
| 2026-05-06 15:26 | 43.93519 | 17.22975 | 36987 ft | 447 kts | 145° |
| 2026-05-06 15:26 | 43.88748 | 17.28513 | 37006 ft | 447 kts | 145° |
| 2026-05-06 15:27 | 43.83961 | 17.34050 | 37003 ft | 448 kts | 146° |
| 2026-05-06 15:27 | 43.79198 | 17.39545 | 37015 ft | 448 kts | 146° |
| 2026-05-06 15:28 | 43.74401 | 17.45071 | 37010 ft | 449 kts | 146° |
| 2026-05-06 15:28 | 43.69594 | 17.50588 | 37007 ft | 449 kts | 145° |
| 2026-05-06 15:29 | 43.64783 | 17.56101 | 37020 ft | 449 kts | 145° |
| 2026-05-06 15:29 | 43.59964 | 17.61617 | 37009 ft | 450 kts | 145° |
| 2026-05-06 15:30 | 43.55142 | 17.67128 | 37018 ft | 450 kts | 145° |
| 2026-05-06 15:30 | 43.50345 | 17.72605 | 37019 ft | 450 kts | 145° |
| 2026-05-06 15:31 | 43.45515 | 17.78105 | 37023 ft | 450 kts | 144° |
| 2026-05-06 15:31 | 43.40677 | 17.83596 | 37058 ft | 450 kts | 145° |
| 2026-05-06 15:32 | 43.33414 | 17.91808 | 37066 ft | 450 kts | 145° |
| 2026-05-06 15:32 | 43.28574 | 17.97272 | 37063 ft | 450 kts | 145° |
| 2026-05-06 15:33 | 43.23757 | 18.02693 | 37058 ft | 450 kts | 145° |
| 2026-05-06 15:33 | 43.18910 | 18.08136 | 37052 ft | 450 kts | 145° |
| 2026-05-06 15:34 | 43.14067 | 18.13576 | 37041 ft | 450 kts | 145° |
| 2026-05-06 15:34 | 43.09216 | 18.19008 | 37038 ft | 451 kts | 145° |
| 2026-05-06 15:35 | 43.04358 | 18.24429 | 37042 ft | 450 kts | 145° |
| 2026-05-06 15:35 | 42.99501 | 18.29836 | 37044 ft | 450 kts | 145° |
| 2026-05-06 15:36 | 42.94637 | 18.35235 | 37048 ft | 451 kts | 145° |
| 2026-05-06 15:36 | 42.89799 | 18.40603 | 37039 ft | 451 kts | 145° |
| 2026-05-06 15:37 | 42.84921 | 18.46001 | 37034 ft | 452 kts | 145° |
| 2026-05-06 15:37 | 42.80030 | 18.51416 | 37040 ft | 453 kts | 145° |
| 2026-05-06 15:38 | 42.75129 | 18.56827 | 37044 ft | 454 kts | 145° |
| 2026-05-06 15:38 | 42.70221 | 18.62230 | 37048 ft | 454 kts | 145° |
| 2026-05-06 15:39 | 42.65300 | 18.67641 | 37050 ft | 455 kts | 145° |
| 2026-05-06 15:39 | 42.60403 | 18.73008 | 37057 ft | 455 kts | 145° |
| 2026-05-06 15:40 | 42.55462 | 18.78409 | 37059 ft | 456 kts | 145° |
| 2026-05-06 15:40 | 42.50519 | 18.83802 | 37059 ft | 456 kts | 145° |
| 2026-05-06 15:41 | 42.45565 | 18.89195 | 37068 ft | 457 kts | 145° |
| 2026-05-06 15:41 | 42.40609 | 18.94583 | 37058 ft | 457 kts | 145° |
| 2026-05-06 15:42 | 42.36480 | 18.99056 | 37066 ft | 457 kts | 145° |
| 2026-05-06 15:42 | 42.30701 | 19.05303 | 37069 ft | 458 kts | 145° |
| 2026-05-06 15:43 | 42.25726 | 19.10679 | 37071 ft | 458 kts | 145° |
| 2026-05-06 15:43 | 42.21589 | 19.15136 | 37077 ft | 458 kts | 145° |
| 2026-05-06 15:44 | 42.16608 | 19.20493 | 37067 ft | 458 kts | 145° |
| 2026-05-06 15:44 | 42.11623 | 19.25847 | 37073 ft | 458 kts | 145° |
| 2026-05-06 15:45 | 42.06634 | 19.31206 | 37077 ft | 458 kts | 145° |
| 2026-05-06 15:45 | 42.01638 | 19.36551 | 37081 ft | 458 kts | 145° |
| 2026-05-06 15:46 | 41.96638 | 19.41881 | 37077 ft | 458 kts | 145° |
| 2026-05-06 15:46 | 41.91667 | 19.47170 | 37064 ft | 459 kts | 145° |
| 2026-05-06 15:47 | 41.86660 | 19.52488 | 37072 ft | 459 kts | 146° |
| 2026-05-06 15:47 | 41.81641 | 19.57806 | 37069 ft | 460 kts | 146° |
| 2026-05-06 15:48 | 41.76614 | 19.63130 | 37071 ft | 460 kts | 145° |
| 2026-05-06 15:48 | 41.71579 | 19.68464 | 37073 ft | 461 kts | 146° |
| 2026-05-06 15:49 | 41.66537 | 19.73770 | 37070 ft | 461 kts | 146° |
| 2026-05-06 15:49 | 41.61490 | 19.79067 | 37067 ft | 461 kts | 146° |
| 2026-05-06 15:50 | 41.56442 | 19.84374 | 37079 ft | 462 kts | 146° |
| 2026-05-06 15:50 | 41.51392 | 19.89676 | 37079 ft | 462 kts | 146° |
| 2026-05-06 15:51 | 41.46363 | 19.94927 | 37074 ft | 462 kts | 146° |
| 2026-05-06 15:51 | 41.41291 | 20.00213 | 37069 ft | 462 kts | 146° |
| 2026-05-06 15:52 | 41.36219 | 20.05493 | 37071 ft | 463 kts | 146° |
| 2026-05-06 15:52 | 41.31139 | 20.10769 | 37070 ft | 463 kts | 146° |
| 2026-05-06 15:53 | 41.26058 | 20.16042 | 37074 ft | 463 kts | 146° |
| 2026-05-06 15:53 | 41.20978 | 20.21305 | 37071 ft | 463 kts | 146° |
| 2026-05-06 15:54 | 41.15930 | 20.26515 | 37067 ft | 463 kts | 146° |
| 2026-05-06 15:54 | 41.10842 | 20.31759 | 37072 ft | 463 kts | 146° |
| 2026-05-06 15:55 | 41.05756 | 20.36985 | 37073 ft | 462 kts | 146° |
| 2026-05-06 15:55 | 41.00668 | 20.42208 | 37075 ft | 462 kts | 146° |
| 2026-05-06 15:56 | 40.95580 | 20.47426 | 37074 ft | 462 kts | 145° |
| 2026-05-06 15:56 | 40.90522 | 20.52592 | 37071 ft | 462 kts | 145° |
| 2026-05-06 15:57 | 40.85432 | 20.57789 | 37068 ft | 462 kts | 145° |
| 2026-05-06 15:57 | 40.80348 | 20.62978 | 37062 ft | 462 kts | 145° |
| 2026-05-06 15:58 | 40.75252 | 20.68154 | 37062 ft | 462 kts | 146° |
| 2026-05-06 15:58 | 40.70154 | 20.73308 | 37056 ft | 462 kts | 146° |
| 2026-05-06 15:59 | 40.65056 | 20.78465 | 37055 ft | 462 kts | 146° |
| 2026-05-06 15:59 | 40.59980 | 20.83597 | 37050 ft | 462 kts | 146° |
| 2026-05-06 16:00 | 40.54859 | 20.88756 | 37043 ft | 463 kts | 146° |
| 2026-05-06 16:00 | 40.49735 | 20.93907 | 37049 ft | 464 kts | 146° |
| 2026-05-06 16:01 | 40.44884 | 20.99451 | 37044 ft | 466 kts | 140° |
| 2026-05-06 16:01 | 40.40123 | 21.05224 | 37042 ft | 466 kts | 140° |
| 2026-05-06 16:02 | 40.35345 | 21.10982 | 37047 ft | 467 kts | 140° |
| 2026-05-06 16:02 | 40.30563 | 21.16739 | 37038 ft | 467 kts | 140° |
| 2026-05-06 16:03 | 40.25771 | 21.22502 | 37041 ft | 467 kts | 140° |
| 2026-05-06 16:03 | 40.20975 | 21.28251 | 37040 ft | 467 kts | 140° |
| 2026-05-06 16:04 | 40.16181 | 21.33998 | 37044 ft | 467 kts | 140° |
| 2026-05-06 16:04 | 40.11389 | 21.39739 | 37045 ft | 467 kts | 140° |
| 2026-05-06 16:05 | 40.06615 | 21.45433 | 37035 ft | 467 kts | 140° |
| 2026-05-06 16:05 | 40.01805 | 21.51150 | 37035 ft | 468 kts | 140° |
| 2026-05-06 16:06 | 39.96986 | 21.56869 | 37033 ft | 467 kts | 140° |
| 2026-05-06 16:06 | 39.92174 | 21.62568 | 37034 ft | 467 kts | 140° |
| 2026-05-06 16:07 | 39.87358 | 21.68265 | 37030 ft | 467 kts | 140° |
| 2026-05-06 16:07 | 39.82541 | 21.73958 | 37036 ft | 467 kts | 140° |
| 2026-05-06 16:08 | 39.77759 | 21.79603 | 37040 ft | 467 kts | 140° |
| 2026-05-06 16:08 | 39.72929 | 21.85279 | 37027 ft | 468 kts | 140° |
| 2026-05-06 16:09 | 39.68099 | 21.90946 | 37029 ft | 468 kts | 140° |
| 2026-05-06 16:09 | 39.63268 | 21.96600 | 37014 ft | 468 kts | 140° |
| 2026-05-06 16:10 | 39.58430 | 22.02256 | 37021 ft | 467 kts | 140° |
| 2026-05-06 16:10 | 39.53626 | 22.07863 | 37023 ft | 467 kts | 140° |
| 2026-05-06 16:11 | 39.48786 | 22.13497 | 37027 ft | 467 kts | 140° |
| 2026-05-06 16:11 | 39.43944 | 22.19119 | 37023 ft | 468 kts | 140° |
| 2026-05-06 16:12 | 39.39099 | 22.24742 | 37028 ft | 468 kts | 140° |
| 2026-05-06 16:12 | 39.34251 | 22.30365 | 37023 ft | 468 kts | 140° |
| 2026-05-06 16:13 | 39.29394 | 22.35978 | 37027 ft | 469 kts | 140° |
| 2026-05-06 16:13 | 39.24554 | 22.41553 | 37031 ft | 469 kts | 140° |
| 2026-05-06 16:14 | 39.19686 | 22.47163 | 37040 ft | 469 kts | 140° |
| 2026-05-06 16:14 | 39.14818 | 22.52758 | 37034 ft | 469 kts | 140° |
| 2026-05-06 16:15 | 39.09933 | 22.58351 | 37036 ft | 470 kts | 140° |
| 2026-05-06 16:15 | 39.05045 | 22.63950 | 37036 ft | 469 kts | 140° |
| 2026-05-06 16:16 | 39.00161 | 22.69530 | 37039 ft | 469 kts | 140° |
| 2026-05-06 16:16 | 38.95310 | 22.75063 | 37044 ft | 469 kts | 140° |
| 2026-05-06 16:17 | 38.90422 | 22.80619 | 37041 ft | 469 kts | 140° |
| 2026-05-06 16:17 | 38.85528 | 22.86175 | 37046 ft | 470 kts | 140° |
| 2026-05-06 16:18 | 38.80635 | 22.91725 | 37035 ft | 469 kts | 140° |
| 2026-05-06 16:18 | 38.75747 | 22.97272 | 37045 ft | 469 kts | 140° |
| 2026-05-06 16:19 | 38.70858 | 23.02798 | 37046 ft | 468 kts | 140° |
| 2026-05-06 16:19 | 38.65964 | 23.08305 | 37047 ft | 468 kts | 140° |
| 2026-05-06 16:20 | 38.61094 | 23.13762 | 37043 ft | 469 kts | 140° |
| 2026-05-06 16:20 | 38.56189 | 23.19260 | 37038 ft | 469 kts | 140° |
| 2026-05-06 16:21 | 38.51281 | 23.24769 | 37043 ft | 470 kts | 140° |
| 2026-05-06 16:21 | 38.46358 | 23.30286 | 37046 ft | 470 kts | 140° |
| 2026-05-06 16:22 | 38.41468 | 23.35742 | 37047 ft | 470 kts | 140° |
| 2026-05-06 16:22 | 38.36574 | 23.41197 | 37049 ft | 470 kts | 140° |
| 2026-05-06 16:23 | 38.31676 | 23.46652 | 37045 ft | 471 kts | 140° |
| 2026-05-06 16:23 | 38.26737 | 23.52138 | 37050 ft | 471 kts | 140° |
| 2026-05-06 16:24 | 38.21791 | 23.57615 | 37052 ft | 471 kts | 140° |
| 2026-05-06 16:24 | 38.16839 | 23.63091 | 37050 ft | 472 kts | 140° |
| 2026-05-06 16:25 | 38.11889 | 23.68557 | 37048 ft | 472 kts | 140° |
| 2026-05-06 16:25 | 38.06932 | 23.74026 | 37055 ft | 472 kts | 140° |
| 2026-05-06 16:26 | 38.01958 | 23.79488 | 37059 ft | 473 kts | 140° |
| 2026-05-06 16:26 | 37.96963 | 23.84961 | 37050 ft | 474 kts | 140° |
| 2026-05-06 16:27 | 37.92003 | 23.90389 | 37085 ft | 474 kts | 140° |
| 2026-05-06 16:27 | 37.87012 | 23.95852 | 37093 ft | 474 kts | 140° |
| 2026-05-06 16:28 | 37.82024 | 24.01312 | 37093 ft | 474 kts | 140° |
| 2026-05-06 16:28 | 37.77031 | 24.06754 | 37090 ft | 474 kts | 140° |
| 2026-05-06 16:29 | 37.72026 | 24.12198 | 37083 ft | 474 kts | 140° |
| 2026-05-06 16:29 | 37.67045 | 24.17591 | 37073 ft | 475 kts | 140° |
| 2026-05-06 16:30 | 37.62845 | 24.22144 | 37083 ft | 475 kts | 140° |
| 2026-05-06 16:30 | 37.57024 | 24.28438 | 37083 ft | 474 kts | 141° |
| 2026-05-06 16:31 | 37.51593 | 24.33107 | 37082 ft | 472 kts | 150° |
| 2026-05-06 16:31 | 37.46019 | 24.37493 | 37083 ft | 472 kts | 149° |
| 2026-05-06 16:32 | 37.40448 | 24.41876 | 37068 ft | 473 kts | 149° |
| 2026-05-06 16:32 | 37.34861 | 24.46258 | 37073 ft | 473 kts | 149° |
| 2026-05-06 16:33 | 37.29302 | 24.50617 | 37083 ft | 474 kts | 149° |
| 2026-05-06 16:34 | 37.20904 | 24.57163 | 37093 ft | 474 kts | 150° |
| 2026-05-06 16:34 | 37.15303 | 24.61521 | 37092 ft | 474 kts | 150° |
| 2026-05-06 16:35 | 37.09703 | 24.65873 | 37088 ft | 474 kts | 150° |
| 2026-05-06 16:35 | 37.04097 | 24.70218 | 37093 ft | 473 kts | 150° |
| 2026-05-06 16:36 | 36.98499 | 24.74548 | 37094 ft | 473 kts | 150° |
| 2026-05-06 16:36 | 36.95691 | 24.76715 | 36857 ft | 473 kts | 150° |
| 2026-05-06 16:36 | 36.92890 | 24.78880 | 36594 ft | 473 kts | 150° |
| 2026-05-06 16:36 | 36.90087 | 24.81051 | 36335 ft | 474 kts | 150° |
| 2026-05-06 16:37 | 36.87287 | 24.83221 | 36042 ft | 474 kts | 150° |
| 2026-05-06 16:37 | 36.84476 | 24.85395 | 35336 ft | 477 kts | 150° |
| 2026-05-06 16:37 | 36.81675 | 24.87559 | 34481 ft | 483 kts | 150° |
| 2026-05-06 16:37 | 36.78801 | 24.89777 | 33510 ft | 489 kts | 150° |
| 2026-05-06 16:38 | 36.75898 | 24.92015 | 32601 ft | 492 kts | 150° |
| 2026-05-06 16:38 | 36.72967 | 24.94273 | 31610 ft | 497 kts | 150° |
| 2026-05-06 16:38 | 36.70028 | 24.96540 | 30984 ft | 494 kts | 150° |
| 2026-05-06 16:38 | 36.67119 | 24.98788 | 30365 ft | 491 kts | 150° |
| 2026-05-06 16:39 | 36.64216 | 25.01024 | 29685 ft | 488 kts | 149° |
| 2026-05-06 16:39 | 36.61337 | 25.03231 | 29071 ft | 483 kts | 150° |
| 2026-05-06 16:39 | 36.58490 | 25.05408 | 28461 ft | 478 kts | 150° |
| 2026-05-06 16:39 | 36.55662 | 25.07568 | 27862 ft | 474 kts | 149° |
| 2026-05-06 16:40 | 36.53806 | 25.08985 | 27461 ft | 471 kts | 149° |
| 2026-05-06 16:40 | 36.50094 | 25.11820 | 26678 ft | 466 kts | 149° |
| 2026-05-06 16:40 | 36.48266 | 25.13214 | 26295 ft | 463 kts | 149° |
| 2026-05-06 16:40 | 36.45528 | 25.15300 | 25720 ft | 460 kts | 149° |
| 2026-05-06 16:41 | 36.42814 | 25.17367 | 25146 ft | 456 kts | 149° |
| 2026-05-06 16:41 | 36.40117 | 25.19422 | 24601 ft | 453 kts | 149° |
| 2026-05-06 16:41 | 36.37442 | 25.21458 | 24062 ft | 449 kts | 148° |
| 2026-05-06 16:41 | 36.34783 | 25.23479 | 23503 ft | 446 kts | 148° |
| 2026-05-06 16:42 | 36.32156 | 25.25474 | 22980 ft | 440 kts | 148° |
| 2026-05-06 16:42 | 36.29567 | 25.27442 | 22491 ft | 433 kts | 149° |
| 2026-05-06 16:42 | 36.27015 | 25.29381 | 22009 ft | 427 kts | 149° |
| 2026-05-06 16:42 | 36.24497 | 25.31291 | 21533 ft | 421 kts | 149° |
| 2026-05-06 16:43 | 36.22016 | 25.33167 | 21075 ft | 415 kts | 149° |
| 2026-05-06 16:43 | 36.19589 | 25.35000 | 20602 ft | 411 kts | 149° |
| 2026-05-06 16:43 | 36.17160 | 25.36835 | 20141 ft | 407 kts | 149° |
| 2026-05-06 16:43 | 36.14749 | 25.38653 | 19675 ft | 404 kts | 149° |
| 2026-05-06 16:44 | 36.12313 | 25.40350 | 19190 ft | 400 kts | 156° |
| 2026-05-06 16:44 | 36.09720 | 25.41553 | 18720 ft | 396 kts | 164° |
| 2026-05-06 16:44 | 36.07100 | 25.42601 | 18200 ft | 395 kts | 164° |
| 2026-05-06 16:44 | 36.04494 | 25.43645 | 17707 ft | 391 kts | 164° |
| 2026-05-06 16:45 | 36.01080 | 25.45019 | 17072 ft | 387 kts | 163° |
| 2026-05-06 16:45 | 35.99351 | 25.45716 | 16741 ft | 385 kts | 163° |
| 2026-05-06 16:45 | 35.96814 | 25.46741 | 16278 ft | 382 kts | 163° |
| 2026-05-06 16:45 | 35.94293 | 25.47759 | 15792 ft | 380 kts | 163° |
| 2026-05-06 16:46 | 35.91822 | 25.48755 | 15334 ft | 377 kts | 163° |
| 2026-05-06 16:46 | 35.89334 | 25.49756 | 14866 ft | 375 kts | 163° |
| 2026-05-06 16:46 | 35.86860 | 25.50750 | 14396 ft | 373 kts | 163° |
| 2026-05-06 16:46 | 35.84396 | 25.51737 | 13925 ft | 371 kts | 163° |
| 2026-05-06 16:47 | 35.81947 | 25.52719 | 13415 ft | 369 kts | 162° |
| 2026-05-06 16:47 | 35.79511 | 25.53694 | 12932 ft | 366 kts | 162° |
| 2026-05-06 16:47 | 35.77101 | 25.54657 | 12462 ft | 363 kts | 162° |
| 2026-05-06 16:47 | 35.74703 | 25.55611 | 11970 ft | 361 kts | 162° |
| 2026-05-06 16:48 | 35.72321 | 25.56557 | 11490 ft | 358 kts | 162° |
| 2026-05-06 16:48 | 35.69999 | 25.57636 | 11002 ft | 356 kts | 153° |
| 2026-05-06 16:48 | 35.67932 | 25.59215 | 10561 ft | 352 kts | 140° |
| 2026-05-06 16:48 | 35.66069 | 25.61083 | 10429 ft | 338 kts | 140° |
| 2026-05-06 16:49 | 35.64271 | 25.62863 | 10304 ft | 326 kts | 140° |
| 2026-05-06 16:49 | 35.62524 | 25.64570 | 10184 ft | 314 kts | 141° |
| 2026-05-06 16:49 | 35.60615 | 25.65779 | 9946 ft | 308 kts | 165° |
| 2026-05-06 16:49 | 35.58489 | 25.66052 | 9423 ft | 310 kts | 187° |
| 2026-05-06 16:50 | 35.56457 | 25.65334 | 9005 ft | 301 kts | 209° |
| 2026-05-06 16:50 | 35.54818 | 25.63820 | 8394 ft | 295 kts | 228° |
| 2026-05-06 16:50 | 35.53400 | 25.61998 | 7977 ft | 294 kts | 228° |
| 2026-05-06 16:50 | 35.52000 | 25.60213 | 7499 ft | 293 kts | 228° |
| 2026-05-06 16:51 | 35.50600 | 25.58433 | 6985 ft | 288 kts | 227° |
| 2026-05-06 16:51 | 35.49211 | 25.56670 | 6441 ft | 285 kts | 227° |
| 2026-05-06 16:51 | 35.47839 | 25.54932 | 5928 ft | 280 kts | 227° |
| 2026-05-06 16:51 | 35.46485 | 25.53216 | 5428 ft | 280 kts | 227° |
| 2026-05-06 16:52 | 35.45141 | 25.51511 | 5109 ft | 276 kts | 227° |
| 2026-05-06 16:52 | 35.43817 | 25.49832 | 4597 ft | 271 kts | 227° |
| 2026-05-06 16:52 | 35.42504 | 25.48168 | 3960 ft | 271 kts | 227° |
| 2026-05-06 16:52 | 35.41210 | 25.46533 | 3615 ft | 260 kts | 227° |
| 2026-05-06 16:53 | 35.40001 | 25.45011 | 3555 ft | 239 kts | 227° |
| 2026-05-06 16:53 | 35.38889 | 25.43608 | 3512 ft | 218 kts | 227° |
| 2026-05-06 16:53 | 35.37871 | 25.42319 | 3422 ft | 202 kts | 227° |
| 2026-05-06 16:53 | 35.36955 | 25.41161 | 3366 ft | 180 kts | 227° |
| 2026-05-06 16:54 | 35.36144 | 25.40138 | 3264 ft | 156 kts | 227° |
| 2026-05-06 16:54 | 35.35412 | 25.39213 | 3194 ft | 149 kts | 227° |
| 2026-05-06 16:54 | 35.34695 | 25.38309 | 3133 ft | 147 kts | 227° |
| 2026-05-06 16:54 | 35.33982 | 25.37409 | 3076 ft | 147 kts | 227° |
| 2026-05-06 16:55 | 35.33339 | 25.36445 | 3012 ft | 146 kts | 241° |
| 2026-05-06 16:55 | 35.32956 | 25.35303 | 2934 ft | 145 kts | 257° |
| 2026-05-06 16:55 | 35.32856 | 25.34086 | 2726 ft | 143 kts | 274° |
| 2026-05-06 16:55 | 35.32944 | 25.32874 | 2521 ft | 142 kts | 276° |
| 2026-05-06 16:56 | 35.33027 | 25.31682 | 2336 ft | 139 kts | 276° |
| 2026-05-06 16:56 | 35.33107 | 25.30505 | 2148 ft | 138 kts | 275° |
| 2026-05-06 16:56 | 35.33187 | 25.29335 | 1964 ft | 138 kts | 275° |
| 2026-05-06 16:56 | 35.33268 | 25.28183 | 1748 ft | 137 kts | 275° |
| 2026-05-06 16:57 | 35.33349 | 25.27029 | 1541 ft | 136 kts | 275° |
| 2026-05-06 16:57 | 35.33428 | 25.25846 | 1346 ft | 143 kts | 274° |
| 2026-05-06 16:57 | 35.33504 | 25.24607 | 1177 ft | 147 kts | 275° |
| 2026-05-06 16:57 | 35.33593 | 25.23333 | 919 ft | 154 kts | 276° |
| 2026-05-06 16:58 | 35.33685 | 25.22020 | 672 ft | 154 kts | 275° |
| 2026-05-06 16:58 | 35.33780 | 25.20727 | 465 ft | 152 kts | 278° |
| 2026-05-06 16:58 | 35.33875 | 25.19441 | 248 ft | 150 kts | 276° |
| 2026-05-06 16:58 | 35.33965 | 25.18193 | 109 ft | 138 kts | 276° |
| 2026-05-06 16:59 | 35.34033 | 25.17199 | 85 ft | 80 kts | 275° |
| 2026-05-06 16:59 | 35.34045 | 25.16862 | 67 ft | 11 kts | 231° |
| 2026-05-06 16:59 | 35.34014 | 25.16868 | 71 ft | 2 kts | 133° |
| 2026-05-06 16:59 | 35.34006 | 25.16884 | 69 ft | 4 kts | 123° |
| 2026-05-06 17:00 | 35.33975 | 25.16942 | 65 ft | 13 kts | 124° |
| 2026-05-06 17:00 | 35.33939 | 25.17062 | 75 ft | 15 kts | 95° |
| 2026-05-06 17:00 | 35.33935 | 25.17171 | 80 ft | 9 kts | 94° |
| 2026-05-06 17:00 | 35.33908 | 25.17195 | 83 ft | 4 kts | 174° |
| 2026-05-06 17:01 | 35.33885 | 25.17186 | 83 ft | 3 kts | 232° |
| 2026-05-06 17:01 | 35.33890 | 25.17172 | 80 ft | 1 kts | 309° |
| 2026-05-06 17:01 | 35.33899 | 25.17170 | 84 ft | 3 kts | 354° |
| 2026-05-06 17:01 | 35.33924 | 25.17190 | 84 ft | 5 kts | 56° |
| 2026-05-06 17:02 | 35.33923 | 25.17256 | 86 ft | 9 kts | 118° |
| 2026-05-06 17:02 | 35.33923 | 25.17317 | 85 ft | 6 kts | 86° |
| 2026-05-06 17:02 | 35.33915 | 25.17357 | 85 ft | 4 kts | 123° |
| 2026-05-06 17:02 | 35.33881 | 25.17375 | 86 ft | 8 kts | 175° |
| 2026-05-06 17:03 | 35.33824 | 25.17372 | 84 ft | 8 kts | 184° |
| 2026-05-06 17:03 | 35.33779 | 25.17347 | 88 ft | 7 kts | 247° |
| 2026-05-06 17:03 | 35.33781 | 25.17305 | 84 ft | 1 kts | 313° |
| 2026-05-06 17:03 | 35.33785 | 25.17306 | 86 ft | 1 kts | 345° |
| 2026-05-06 17:04 | 35.33792 | 25.17306 | 85 ft | 0 kts | 2° |
| 2026-05-06 17:04 | 35.33798 | 25.17307 | 85 ft | 0 kts | 4° |